Data for 09/01/2013

Time Sea-Level Adjusted Pressure Absolute Pressure Temperature Relative Humidity Dew Point   
(mb) (inHg) (mb) (inHg) (C) (F) (%) (C) (F)
00:05 1021 30.15 851 25.13 17.6 63.7 33 1.5 34.6
00:10 1021 30.15 851 25.13 17.6 63.7 34 1.5 34.8
00:15 1021 30.15 851 25.13 17.5 63.5 34 1.5 34.7
00:20 1021 30.15 851 25.13 17.5 63.4 34 1.5 34.7
00:25 1021 30.15 850 25.1 17.4 63.3 34 1.5 34.8
00:30 1021 30.15 851 25.13 17.3 63.2 35 1.7 35
00:35 1021 30.15 850 25.1 17.2 63 35 1.6 34.9
00:40 1021 30.15 850 25.1 17.2 62.9 35 1.7 35
00:45 1021 30.15 850 25.1 17 62.7 35 1.7 35
00:50 1021 30.15 850 25.1 16.9 62.4 35 1.6 34.9
00:55 1021 30.15 850 25.1 16.9 62.4 36 1.7 35
01:00 1021 30.15 850 25.1 16.8 62.3 36 1.7 35
01:05 1021 30.15 850 25.1 16.8 62.2 36 1.7 35.1
01:10 1021 30.15 851 25.13 16.7 62.1 36 1.7 35
01:15 1021 30.15 851 25.13 16.6 61.9 36 1.7 35.1
01:20 1021 30.15 851 25.13 16.5 61.6 37 1.8 35.2
01:25 1021 30.15 851 25.13 16.4 61.5 37 1.8 35.2
01:30 1021 30.15 851 25.13 16.4 61.5 37 1.7 35
01:35 1021 30.15 851 25.13 16.3 61.4 37 1.7 35.1
01:40 1021 30.15 851 25.13 16.4 61.4 37 1.8 35.2
01:45 1022 30.18 851 25.13 16.3 61.3 37 1.7 35
01:50 1022 30.18 851 25.13 16.2 61.2 37 1.7 35
01:55 1022 30.18 851 25.13 16.2 61.1 37 1.7 35.1
02:00 1022 30.18 851 25.13 16.2 61.1 37 1.6 34.9
02:05 1022 30.18 851 25.13 16.2 61.2 37 1.5 34.8
02:10 1022 30.18 851 25.13 16.2 61.1 37 1.6 34.9
02:15 1022 30.18 851 25.13 16.1 61 37 1.5 34.8
02:20 1022 30.18 851 25.13 16.1 60.9 37 1.5 34.7
02:25 1022 30.18 851 25.13 16 60.9 37 1.5 34.7
02:30 1022 30.18 851 25.13 16 60.9 37 1.5 34.6
02:35 1022 30.18 851 25.13 16 60.7 38 1.6 34.9
02:40 1021 30.15 851 25.13 15.9 60.6 37 1.4 34.6
02:45 1021 30.15 851 25.13 15.9 60.7 37 1.5 34.7
02:50 1021 30.15 851 25.13 15.9 60.6 37 1.5 34.7
02:55 1021 30.15 851 25.13 15.8 60.5 38 1.6 34.8
03:00 1021 30.15 851 25.13 15.8 60.5 37 1.5 34.6
03:05 1021 30.15 851 25.13 15.8 60.5 38 1.6 34.9
03:10 1021 30.15 851 25.13 15.7 60.3 38 1.5 34.7
03:15 1021 30.15 850 25.1 15.7 60.3 38 1.4 34.5
03:20 1021 30.15 851 25.13 15.8 60.4 38 1.6 34.9
03:25 1021 30.15 850 25.1 15.7 60.2 38 1.5 34.7
03:30 1021 30.15 850 25.1 15.7 60.2 38 1.5 34.8
03:35 1021 30.15 850 25.1 15.6 60.1 38 1.5 34.8
03:40 1021 30.15 850 25.1 15.5 59.9 38 1.5 34.7
03:45 1021 30.15 850 25.1 15.5 59.9 39 1.6 34.8
03:50 1021 30.15 850 25.1 15.4 59.8 39 1.5 34.7
03:55 1021 30.15 851 25.13 15.4 59.8 39 1.5 34.7
04:00 1021 30.15 851 25.13 15.4 59.6 39 1.5 34.7
04:05 1021 30.15 851 25.13 15.4 59.6 39 1.5 34.7
04:10 1021 30.15 851 25.13 15.3 59.6 39 1.5 34.7
04:15 1021 30.15 851 25.13 15.2 59.4 39 1.6 34.9
04:20 1021 30.15 851 25.13 15.1 59.2 40 1.6 34.8
04:25 1021 30.15 851 25.13 15 59 40 1.6 34.8
04:30 1021 30.15 851 25.13 15 59 40 1.6 34.8
04:35 1021 30.15 851 25.13 14.9 58.9 40 1.6 34.8
04:40 1021 30.15 851 25.13 14.9 58.8 40 1.6 34.9
04:45 1021 30.15 851 25.13 14.9 58.8 40 1.5 34.8
04:50 1021 30.15 851 25.13 15 58.9 40 1.5 34.8
04:55 1021 30.15 851 25.13 15 58.9 40 1.6 34.9
05:00 1021 30.15 851 25.13 14.9 58.9 40 1.5 34.7
05:05 1021 30.15 851 25.13 15.1 59.1 40 1.5 34.7
05:10 1021 30.15 851 25.13 15 59 40 1.6 34.8
05:15 1021 30.15 851 25.13 15 58.9 40 1.6 34.8
05:20 1021 30.15 851 25.13 14.9 58.7 40 1.6 34.9
05:25 1021 30.15 851 25.13 14.8 58.6 41 1.6 34.9
05:30 1022 30.18 851 25.13 14.7 58.5 41 1.6 34.9
05:35 1022 30.18 851 25.13 14.7 58.5 41 1.7 35
05:40 1022 30.18 851 25.13 14.6 58.4 41 1.7 35
05:45 1022 30.18 851 25.13 14.6 58.2 41 1.6 34.9
05:50 1022 30.18 851 25.13 14.6 58.3 41 1.7 35.1
05:55 1022 30.18 851 25.13 14.5 58.2 41 1.7 35
06:00 1022 30.18 851 25.13 14.5 58.1 41 1.6 34.8
06:05 1022 30.18 851 25.13 14.6 58.3 41 1.6 34.9
06:10 1022 30.18 851 25.13 14.6 58.3 41 1.6 34.9
06:15 1022 30.18 851 25.13 14.6 58.3 41 1.5 34.7
06:20 1022 30.18 851 25.13 14.8 58.7 40 1.5 34.6
06:25 1022 30.18 851 25.13 14.9 58.9 40 1.5 34.7
06:30 1022 30.18 851 25.13 15.1 59.1 39 1.5 34.6
06:35 1022 30.18 851 25.13 15.2 59.3 39 1.4 34.5
06:40 1022 30.18 851 25.13 15.2 59.3 40 1.6 35
06:45 1022 30.18 851 25.13 15.3 59.5 39 1.6 34.9
06:50 1022 30.18 851 25.13 15.4 59.6 39 1.7 35.1
06:55 1022 30.18 851 25.13 15.5 59.9 39 1.8 35.3
07:00 1022 30.18 851 25.13 15.6 60.1 39 1.7 35.1
07:05 1022 30.18 851 25.13 15.8 60.4 38 1.6 34.9
07:10 1022 30.18 851 25.13 15.8 60.5 38 1.8 35.2
07:15 1022 30.18 851 25.13 15.9 60.7 37 1.5 34.7
07:20 1022 30.18 851 25.13 16.1 61 37 1.6 34.8
07:25 1022 30.18 851 25.13 16.2 61.2 37 1.5 34.7
07:30 1022 30.18 851 25.13 16.5 61.7 36 1.6 34.8
07:35 1022 30.18 851 25.13 16.6 61.9 36 1.5 34.6
07:40 1022 30.18 851 25.13 16.9 62.3 35 1.5 34.6
07:45 1022 30.18 851 25.13 16.9 62.5 35 1.5 34.7
07:50 1022 30.18 851 25.13 17.2 62.9 35 1.7 35
07:55 1022 30.18 851 25.13 17.5 63.5 33 1.3 34.4
08:00 1022 30.18 851 25.13 17.7 63.9 34 1.6 35
08:05 1022 30.18 851 25.13 17.8 64.1 33 1.3 34.4
08:10 1022 30.18 851 25.13 18 64.5 33 1.7 35.1
08:15 1022 30.18 851 25.13 18.3 64.9 33 1.7 35.1
08:20 1022 30.18 851 25.13 18.4 65.1 33 2.1 35.8
08:25 1022 30.18 851 25.13 18 64.4 35 2.6 36.6
08:30 1022 30.18 851 25.13 18 64.5 34 2.1 35.7
08:35 1022 30.18 851 25.13 18.1 64.5 35 2.4 36.3
08:40 1022 30.18 851 25.13 17.6 63.7 35 2 35.6
08:45 1022 30.18 851 25.13 18 64.4 36 2.7 36.9
08:50 1022 30.18 851 25.13 18.2 64.8 35 2.6 36.7
08:55 1022 30.18 851 25.13 18.5 65.3 35 2.8 37.1
09:00 1022 30.18 851 25.13 19.1 66.3 35 3.3 37.9
09:05 1022 30.18 851 25.13 18.4 65.2 34 2.5 36.5
09:10 1022 30.18 851 25.13 19.1 66.3 32 2.3 36.2
09:15 1022 30.18 851 25.13 19.5 67.1 32 2.5 36.5
09:20 1022 30.18 851 25.13 19.7 67.4 32 2.6 36.7
09:25 1022 30.18 851 25.13 19.9 67.7 33 3.1 37.7
09:30 1022 30.18 851 25.13 19.3 66.8 33 2.8 37.1
09:35 1022 30.18 851 25.13 19.3 66.7 33 2.7 36.9
09:40 1022 30.18 851 25.13 19.8 67.7 31 2.4 36.3
09:45 1022 30.18 851 25.13 20.4 68.7 31 2.7 36.8
09:50 1022 30.18 851 25.13 20.9 69.7 30 3.1 37.5
09:55 1022 30.18 851 25.13 20.9 69.7 31 3.5 38.4
10:00 1022 30.18 851 25.13 20.7 69.3 30 2.8 37.1
10:05 1022 30.18 851 25.13 21.6 70.9 28 2.5 36.6
10:10 1022 30.18 851 25.13 22.1 71.8 27 2.5 36.6
10:15 1022 30.18 851 25.13 22.3 72.2 28 3 37.4
10:20 1022 30.18 851 25.13 22.3 72.1 27 2.8 37
10:25 1022 30.18 851 25.13 22.6 72.7 27 3 37.3
10:30 1022 30.18 851 25.13 22.9 73.1 28 3.5 38.4
10:35 1022 30.18 851 25.13 22.7 72.8 28 3.3 38
10:40 1022 30.18 851 25.13 21.6 71 29 2.8 37.1
10:45 1022 30.18 851 25.13 21.9 71.5 27 2.4 36.4
10:50 1022 30.18 851 25.13 22.2 72 27 2.3 36.1
10:55 1022 30.18 851 25.13 21.7 71 27 2.2 36
11:00 1022 30.18 851 25.13 21.9 71.4 28 2.8 37.1
11:05 1022 30.18 851 25.13 22.4 72.3 26 2 35.6
11:10 1022 30.18 851 25.13 23.2 73.8 25 2.3 36.2
11:15 1022 30.18 851 25.13 23.3 74 26 2.8 37.1
11:20 1022 30.18 851 25.13 23.4 74.1 25 2.6 36.7
11:25 1021 30.15 851 25.13 23.9 74.9 26 3.2 37.7
11:30 1021 30.15 851 25.13 23.3 74 24 2 35.6
11:35 1021 30.15 851 25.13 24.4 76 23 2.1 35.8
11:40 1021 30.15 850 25.1 25.3 77.5 23 2.7 36.9
11:45 1021 30.15 850 25.1 25.1 77.2 24 3.1 37.6
11:50 1021 30.15 850 25.1 25.5 77.9 22 2.8 37
11:55 1021 30.15 850 25.1 25.7 78.2 22 2.4 36.3
12:00 1021 30.15 850 25.1 25.8 78.5 23 3.3 38
12:05 1021 30.15 850 25.1 25.6 78 23 3.2 37.8
12:10 1021 30.15 850 25.1 25.8 78.4 22 2.4 36.4
12:15 1021 30.15 850 25.1 26.3 79.4 20 2.2 35.9
12:20 1021 30.15 850 25.1 25.5 78 22 2.5 36.4
12:25 1021 30.15 850 25.1 25.8 78.5 22 2.9 37.1
12:30 1021 30.15 850 25.1 26.3 79.4 22 3.2 37.7
12:35 1021 30.15 850 25.1 26.6 80 21 3.1 37.5
12:40 1021 30.15 850 25.1 26.7 80 21 2.5 36.5
12:45 1021 30.15 850 25.1 27.5 81.4 18 1.6 34.9
12:50 1021 30.15 850 25.1 26.7 80.1 21 2.7 36.8
12:55 1021 30.15 850 25.1 26.9 80.5 20 2.6 36.8
13:00 1021 30.15 850 25.1 27.9 82.2 20 2.9 37.2
13:05 1021 30.15 850 25.1 27.4 81.3 21 3.3 37.9
13:10 1021 30.15 850 25.1 27.9 82.2 19 2.8 37.1
13:15 1021 30.15 850 25.1 28.4 83.1 19 2.6 36.7
13:20 1021 30.15 850 25.1 28.4 83.2 20 3.4 38.2
13:25 1021 30.15 850 25.1 28.3 82.9 18 2.3 36.1
13:30 1021 30.15 850 25.1 28.3 82.9 19 2.5 36.4
13:35 1020 30.12 850 25.1 28.6 83.5 18 2.1 35.8
13:40 1020 30.12 850 25.1 28.9 84 18 2.4 36.4
13:45 1020 30.12 849 25.07 28.7 83.6 16 1.1 33.9
13:50 1020 30.12 849 25.07 27.9 82.3 17 1.3 34.4
13:55 1020 30.12 849 25.07 29 84.1 16 1.2 34.2
14:00 1020 30.12 849 25.07 29.4 85 16 1.4 34.5
14:05 1020 30.12 849 25.07 29.4 85 17 2.1 35.7
14:10 1020 30.12 849 25.07 29.8 85.6 16 2 35.6
14:15 1020 30.12 849 25.07 30 86.1 15 1.3 34.3
14:20 1020 30.12 849 25.07 30.3 86.6 14 0.5 32.8
14:25 1020 30.12 849 25.07 30 86 16 1.4 34.6
14:30 1020 30.12 849 25.07 29.7 85.5 15 0.9 33.6
14:35 1020 30.12 849 25.07 29.2 84.6 16 0.9 33.5
14:40 1020 30.12 849 25.07 29.7 85.5 15 0.9 33.6
14:45 1020 30.12 849 25.07 29.2 84.5 14 -0.4 31.2
14:50 1020 30.12 849 25.07 30.4 86.7 14 -0.1 31.7
14:55 1020 30.12 849 25.07 31 87.8 13 -0.2 31.6
15:00 1019 30.09 849 25.07 31.5 88.7 14 0.8 33.4
15:05 1019 30.09 849 25.07 30.9 87.6 12 -0.9 30.4
15:10 1019 30.09 849 25.07 30.1 86.1 12 -1.8 28.8
15:15 1019 30.09 849 25.07 30.3 86.6 12 -1.9 28.5
15:20 1019 30.09 848 25.04 30.7 87.2 13 -0.2 31.6
15:25 1019 30.09 848 25.04 31.1 88 13 -0.6 30.9
15:30 1019 30.09 848 25.04 31.2 88.2 12 -1 30.1
15:35 1019 30.09 848 25.04 30.2 86.4 12 -2.1 28.2
15:40 1019 30.09 848 25.04 30 86 11 -2.9 26.9
15:45 1019 30.09 848 25.04 30.5 86.9 11 -3.4 25.8
15:50 1019 30.09 848 25.04 30.5 86.9 10 -3.7 25.3
15:55 1019 30.09 848 25.04 30.2 86.4 10 -4 24.9
16:00 1019 30.09 848 25.04 30.6 87.1 11 -2.5 27.5
16:05 1019 30.09 848 25.04 30.8 87.4 11 -2.7 27.2
16:10 1019 30.09 848 25.04 31.2 88.1 10 -3.4 25.8
16:15 1019 30.09 848 25.04 31.1 87.9 11 -2.9 26.7
16:20 1019 30.09 848 25.04 31.3 88.4 11 -1.7 28.9
16:25 1019 30.09 848 25.04 31.3 88.4 11 -2.1 28.3
16:30 1019 30.09 848 25.04 31.2 88.2 11 -2.2 28
16:35 1019 30.09 848 25.04 31.2 88.1 11 -2.1 28.2
16:40 1019 30.09 848 25.04 31 87.8 11 -2 28.4
16:45 1019 30.09 848 25.04 30.8 87.4 12 -2 28.5
16:50 1019 30.09 848 25.04 30.9 87.6 12 -1.6 29.1
16:55 1019 30.09 848 25.04 30.8 87.4 12 -1.7 29
17:00 1019 30.09 848 25.04 30.7 87.2 12 -1.8 28.7
17:05 1019 30.09 848 25.04 30.9 87.5 12 -1.4 29.4
17:10 1019 30.09 848 25.04 31 87.8 12 -1.9 28.6
17:15 1018 30.06 848 25.04 30.4 86.8 12 -1.9 28.5
17:20 1018 30.06 848 25.04 30.4 86.6 12 -1.7 29
17:25 1018 30.06 848 25.04 30.2 86.3 13 -0.9 30.4
17:30 1018 30.06 848 25.04 29.6 85.3 13 -1.6 29.2
17:35 1018 30.06 847 25.01 29.4 84.9 13 -1.5 29.3
17:40 1018 30.06 847 25.01 29.4 84.9 14 -0.8 30.5
17:45 1018 30.06 847 25.01 29.4 84.8 14 -0.9 30.5
17:50 1018 30.06 847 25.01 29.3 84.7 14 -1.1 30.1
17:55 1018 30.06 847 25.01 29.2 84.5 18 2.4 36.4
18:00 1018 30.06 847 25.01 29.1 84.4 13 -1.5 29.4
18:05 1018 30.06 847 25.01 29 84.2 13 -2 28.3
18:10 1018 30.06 847 25.01 29 84.2 14 -0.7 30.8
18:15 1018 30.06 847 25.01 28.8 83.9 21 4.7 40.5
18:20 1018 30.06 847 25.01 28.6 83.4 20 4 39.2
18:25 1018 30.06 847 25.01 28.3 83 20 3.6 38.5
18:30 1018 30.06 847 25.01 27.8 82.1 19 2.6 36.7
18:35 1018 30.06 847 25.01 27.7 81.9 21 3.6 38.4
18:40 1018 30.06 847 25.01 27.6 81.7 19 2.3 36.1
18:45 1018 30.06 847 25.01 27.4 81.4 20 3.1 37.6
18:50 1018 30.06 847 25.01 27.1 80.8 23 4.5 40.1
18:55 1018 30.06 847 25.01 26.5 79.7 24 4.4 39.8
19:00 1018 30.06 847 25.01 25.9 78.7 27 5.5 42
19:05 1018 30.06 847 25.01 24.6 76.3 29 5.8 42.5
19:10 1018 30.06 847 25.01 23.5 74.4 30 5.3 41.6
19:15 1018 30.06 847 25.01 23.2 73.7 29 4.3 39.7
19:20 1018 30.06 847 25.01 23.4 74 27 3.6 38.5
19:25 1018 30.06 847 25.01 23.2 73.8 25 2.2 36
19:30 1018 30.06 847 25.01 23.1 73.5 27 3.4 38.1
19:35 1018 30.06 847 25.01 22 71.5 28 2.7 36.8
19:40 1018 30.06 847 25.01 22.2 72 24 0.8 33.5
19:45 1018 30.06 848 25.04 22.6 72.8 24 1.4 34.4
19:50 1018 30.06 848 25.04 22.6 72.6 22 0.1 32.1
19:55 1018 30.06 848 25.04 22.7 72.9 23 0.5 33
20:00 1018 30.06 848 25.04 22.3 72.1 23 0.5 32.8
20:05 1018 30.06 848 25.04 22.1 71.8 24 0.6 33.2
20:10 1018 30.06 848 25.04 21.8 71.2 25 0.8 33.5
20:15 1018 30.06 848 25.04 21.5 70.7 25 0.7 33.3
20:20 1018 30.06 848 25.04 21.2 70.2 25 0.7 33.2
20:25 1018 30.06 848 25.04 21 69.8 25 0.4 32.7
20:30 1018 30.06 848 25.04 21 69.9 25 0.3 32.5
20:35 1018 30.06 848 25.04 21 69.9 25 0.2 32.4
20:40 1018 30.06 848 25.04 21 69.8 25 0.4 32.8
20:45 1018 30.06 848 25.04 21 69.8 24 -0 32
20:50 1019 30.09 848 25.04 21.4 70.5 25 0.5 32.8
20:55 1019 30.09 848 25.04 21.1 70 25 0.7 33.3
21:00 1018 30.06 848 25.04 21 69.7 25 0.3 32.6
21:05 1018 30.06 848 25.04 20.9 69.6 25 0.4 32.8
21:10 1018 30.06 848 25.04 21.2 70.1 23 -0.7 30.7
21:15 1018 30.06 848 25.04 22 71.6 22 -0.8 30.6
21:20 1018 30.06 848 25.04 22.5 72.5 21 -0.4 31.2
21:25 1019 30.09 848 25.04 22.6 72.7 21 -0.7 30.7
21:30 1019 30.09 848 25.04 22.6 72.7 22 -0.3 31.5
21:35 1019 30.09 848 25.04 22.4 72.4 23 0.3 32.5
21:40 1019 30.09 848 25.04 21.5 70.7 25 1.1 34
21:45 1019 30.09 848 25.04 20.3 68.6 28 1.2 34.1
21:50 1019 30.09 848 25.04 20.1 68.2 27 0.5 32.9
21:55 1019 30.09 848 25.04 20 68 27 0.8 33.4
22:00 1019 30.09 848 25.04 20.4 68.8 25 -0.1 31.9
22:05 1019 30.09 848 25.04 20.6 69.2 25 0.3 32.6
22:10 1019 30.09 848 25.04 20.7 69.3 24 -0.1 31.8
22:15 1019 30.09 848 25.04 20.6 69.1 25 0.3 32.5
22:20 1019 30.09 848 25.04 20.7 69.2 24 -0.6 30.8
22:25 1019 30.09 848 25.04 21.5 70.6 22 -0.8 30.5
22:30 1019 30.09 848 25.04 22.1 71.8 21 -0.8 30.6
22:35 1019 30.09 848 25.04 22.4 72.3 21 -0.6 31
22:40 1019 30.09 848 25.04 22.5 72.4 21 -0.7 30.7
22:45 1019 30.09 848 25.04 23 73.3 21 -0.6 31
22:50 1019 30.09 848 25.04 23.3 74 21 -0.3 31.5
22:55 1019 30.09 848 25.04 23.2 73.8 21 0.2 32.3
23:00 1019 30.09 848 25.04 22.9 73.2 22 0.2 32.3
23:05 1019 30.09 848 25.04 22.9 73.2 22 0.1 32.2
23:10 1018 30.06 848 25.04 23 73.3 22 0.3 32.5
23:15 1018 30.06 848 25.04 22.9 73.2 22 0.5 32.9
23:20 1019 30.09 848 25.04 22.5 72.4 23 0.8 33.5
23:25 1019 30.09 848 25.04 22.1 71.8 24 0.9 33.6
23:30 1019 30.09 848 25.04 21.9 71.4 25 0.9 33.7
23:35 1019 30.09 848 25.04 21.6 70.9 25 0.9 33.5
23:40 1019 30.09 848 25.04 21.5 70.8 25 0.9 33.7
23:45 1019 30.09 848 25.04 21.8 71.3 24 0.7 33.3
23:50 1018 30.06 848 25.04 22.1 71.8 24 0.8 33.5
23:55 1018 30.06 848 25.04 22.3 72.2 24 1.1 34
24:00 1018 30.06 848 25.04 22.2 71.9 24 1.1 34